createdAt,value
2016-05-06T00:00:36.853Z,20.88
2016-05-06T00:01:36.855Z,20.66
2016-05-06T00:02:36.843Z,20.77
2016-05-06T00:03:36.862Z,21.14
2016-05-06T00:04:36.864Z,21.38
2016-05-06T00:05:36.850Z,21.49
2016-05-06T00:06:36.853Z,21.43
2016-05-06T00:07:36.855Z,20.89
2016-05-06T00:08:36.859Z,20.77
2016-05-06T00:09:36.846Z,20.7
2016-05-06T00:10:36.708Z,20.64
2016-05-06T00:11:36.851Z,21.03
2016-05-06T00:12:36.855Z,21.19
2016-05-06T00:13:36.857Z,21.35
2016-05-06T00:14:36.860Z,20.98
2016-05-06T00:15:36.706Z,21.17
2016-05-06T00:16:36.693Z,21.29
2016-05-06T00:17:36.867Z,21.47
2016-05-06T00:18:36.855Z,21.37
2016-05-06T00:19:36.857Z,21.35
2016-05-06T00:20:36.712Z,20.87
2016-05-06T00:21:36.872Z,20.69
2016-05-06T00:22:36.874Z,20.5
2016-05-06T00:23:36.705Z,20.74
2016-05-06T00:24:36.863Z,20.58
2016-05-06T00:25:36.882Z,20.59
2016-05-06T00:26:36.854Z,20.95
2016-05-06T00:27:36.701Z,20.77
2016-05-06T00:28:36.859Z,20.73
2016-05-06T00:29:36.862Z,20.61
2016-05-06T00:30:36.865Z,20.7
2016-05-06T00:31:36.867Z,20.76
2016-05-06T00:32:36.854Z,20.95
2016-05-06T00:33:36.717Z,20.85
2016-05-06T00:34:36.719Z,20.72
2016-05-06T00:35:36.707Z,20.59
2016-05-06T00:36:36.709Z,20.42
2016-05-06T00:37:36.852Z,20.55
2016-05-06T00:38:36.855Z,20.77
2016-05-06T00:39:36.858Z,20.59
2016-05-06T00:40:36.547Z,20.8
2016-05-06T00:41:36.706Z,20.57
2016-05-06T00:42:36.881Z,20.54
2016-05-06T00:43:36.853Z,20.62
2016-05-06T00:44:36.855Z,20.35
2016-05-06T00:45:36.858Z,20.54
2016-05-06T00:46:36.704Z,20.54
2016-05-06T00:47:36.863Z,20.47
2016-05-06T00:48:36.866Z,20.64
2016-05-06T00:49:36.853Z,20.59
2016-05-06T00:50:36.855Z,20.42
2016-05-06T00:51:36.858Z,20.51
2016-05-06T00:52:36.846Z,20.62
2016-05-06T00:53:36.864Z,20.52
2016-05-06T00:54:36.866Z,20.14
2016-05-06T00:55:36.729Z,20.01
2016-05-06T00:56:36.857Z,19.51
2016-05-06T00:57:36.859Z,20.05
2016-05-06T00:58:36.862Z,20.03
2016-05-06T00:59:36.848Z,19.92
2016-05-06T01:00:36.852Z,20.26
2016-05-06T01:01:37.026Z,20.39
2016-05-06T01:02:36.841Z,20.42
2016-05-06T01:03:36.843Z,20.64
2016-05-06T01:04:36.846Z,20.57
2016-05-06T01:05:36.709Z,20.73
2016-05-06T01:06:36.712Z,20.58
2016-05-06T01:07:36.698Z,20.35
2016-05-06T01:08:36.842Z,20.24
2016-05-06T01:09:36.860Z,20.29
2016-05-06T01:10:36.706Z,20.33
2016-05-06T01:11:36.850Z,20.55
2016-05-06T01:12:36.696Z,20.58
2016-05-06T01:13:36.700Z,20.67
2016-05-06T01:14:36.842Z,20.66
2016-05-06T01:15:36.705Z,20.29
2016-05-06T01:16:36.847Z,20.47
2016-05-06T01:17:36.850Z,20.52
2016-05-06T01:18:36.853Z,20.35
2016-05-06T01:19:36.700Z,20.35
2016-05-06T01:20:36.858Z,20.36
2016-05-06T01:21:36.704Z,20.67
2016-05-06T01:22:36.849Z,20.66
2016-05-06T01:23:36.851Z,20.82
2016-05-06T01:24:36.854Z,20.08
2016-05-06T01:25:37.590Z,20.05
2016-05-06T01:26:36.860Z,20.36
2016-05-06T01:27:36.862Z,20.29
2016-05-06T01:28:36.849Z,20.06
2016-05-06T01:29:36.851Z,20.08
2016-05-06T01:30:36.854Z,20.33
2016-05-06T01:31:36.685Z,20.2
2016-05-06T01:32:36.859Z,19.87
2016-05-06T01:33:36.846Z,19.55
2016-05-06T01:34:36.692Z,19.74
2016-05-06T01:35:36.696Z,19.96
2016-05-06T01:36:36.854Z,19.68
2016-05-06T01:37:36.856Z,19.87
2016-05-06T01:38:36.859Z,19.71
2016-05-06T01:39:36.863Z,20.05
2016-05-06T01:40:37.115Z,19.92
2016-05-06T01:41:36.680Z,19.62
2016-05-06T01:42:36.684Z,19.77
2016-05-06T01:43:36.842Z,19.87
2016-05-06T01:44:36.845Z,20.08
2016-05-06T01:45:36.847Z,19.88
2016-05-06T01:46:36.834Z,19.98
2016-05-06T01:47:36.837Z,19.51
2016-05-06T01:48:36.840Z,19.84
2016-05-06T01:49:36.842Z,19.56
2016-05-06T01:50:36.844Z,19.69
2016-05-06T01:51:36.848Z,20.05
2016-05-06T01:52:36.851Z,20.35
2016-05-06T01:53:36.838Z,20.51
2016-05-06T01:54:36.840Z,20.05
2016-05-06T01:55:36.891Z,19.74
2016-05-06T01:56:36.690Z,20.24
2016-05-06T01:57:36.693Z,20.17
2016-05-06T01:58:36.835Z,20.06
2016-05-06T01:59:36.838Z,19.99
2016-05-06T02:00:36.857Z,19.95
2016-05-06T02:01:36.687Z,20.06
2016-05-06T02:02:36.831Z,20.16
2016-05-06T02:03:36.848Z,19.77
2016-05-06T02:04:36.837Z,19.91
2016-05-06T02:05:36.839Z,19.58
2016-05-06T02:06:36.842Z,19.76
2016-05-06T02:07:36.828Z,19.77
2016-05-06T02:08:36.847Z,19.5
2016-05-06T02:09:36.834Z,19.55
2016-05-06T02:10:37.914Z,19.65
2016-05-06T02:11:36.839Z,19.36
2016-05-06T02:12:36.842Z,19.48
2016-05-06T02:13:36.673Z,19.47
2016-05-06T02:14:36.831Z,19.87
2016-05-06T02:15:36.834Z,19.71
2016-05-06T02:16:36.837Z,19.98
2016-05-06T02:17:36.825Z,19.87
2016-05-06T02:18:36.827Z,19.71
2016-05-06T02:19:36.830Z,20.26
2016-05-06T02:20:36.833Z,19.88
2016-05-06T02:21:36.835Z,19.41
2016-05-06T02:22:36.838Z,19.47
2016-05-06T02:23:36.672Z,19.8
2016-05-06T02:24:36.815Z,20.11
2016-05-06T02:25:36.818Z,20.01
2016-05-06T02:26:36.821Z,19.71
2016-05-06T02:27:36.839Z,19.76
2016-05-06T02:28:36.670Z,19.78
2016-05-06T02:29:36.813Z,19.61
2016-05-06T02:30:36.817Z,19.96
2016-05-06T02:31:36.834Z,19.4
2016-05-06T02:32:36.821Z,19.91
2016-05-06T02:33:36.667Z,19.96
2016-05-06T02:34:36.827Z,19.84
2016-05-06T02:35:36.814Z,19.88
2016-05-06T02:36:36.660Z,20.33
2016-05-06T02:37:36.820Z,20.14
2016-05-06T02:38:36.822Z,19.96
2016-05-06T02:39:36.809Z,20.39
2016-05-06T02:40:36.827Z,20.08
2016-05-06T02:41:36.657Z,19.96
2016-05-06T02:42:36.816Z,20.16
2016-05-06T02:43:36.820Z,20.16
2016-05-06T02:44:36.666Z,20.29
2016-05-06T02:45:36.809Z,20.2
2016-05-06T02:46:36.657Z,19.94
2016-05-06T02:47:36.815Z,19.95
2016-05-06T02:48:36.801Z,19.22
2016-05-06T02:49:36.804Z,19.68
2016-05-06T02:50:36.808Z,19.71
2016-05-06T02:51:36.810Z,19.65
2016-05-06T02:52:36.797Z,19.86
2016-05-06T02:53:36.644Z,19.99
2016-05-06T02:54:36.802Z,20.05
2016-05-06T02:55:36.868Z,20.02
2016-05-06T02:56:36.808Z,20.58
2016-05-06T02:57:36.795Z,20.82
2016-05-06T02:58:36.798Z,20.59
2016-05-06T02:59:36.801Z,20.29
2016-05-06T03:00:36.803Z,20.03
2016-05-06T03:01:36.805Z,20.21
2016-05-06T03:02:36.496Z,20.38
2016-05-06T03:03:36.811Z,20.16
2016-05-06T03:04:36.798Z,20.38
2016-05-06T03:05:36.800Z,20.18
2016-05-06T03:06:36.803Z,20.26
2016-05-06T03:07:36.650Z,20.33
2016-05-06T03:08:36.793Z,20.42
2016-05-06T03:09:36.811Z,20.64
2016-05-06T03:10:36.939Z,20.32
2016-05-06T03:11:36.802Z,20.36
2016-05-06T03:12:36.788Z,20.16
2016-05-06T03:13:36.791Z,20.16
2016-05-06T03:14:36.793Z,20.32
2016-05-06T03:15:36.797Z,20.33
2016-05-06T03:16:36.783Z,20.38
2016-05-06T03:17:36.786Z,20.26
2016-05-06T03:18:36.632Z,19.83
2016-05-06T03:19:36.791Z,19.48
2016-05-06T03:20:36.794Z,19.86
2016-05-06T03:21:36.781Z,19.98
2016-05-06T03:22:36.784Z,20.05
2016-05-06T03:23:36.787Z,19.87
2016-05-06T03:24:36.790Z,19.94
2016-05-06T03:25:36.901Z,19.94
2016-05-06T03:26:36.795Z,20.08
2016-05-06T03:27:36.626Z,20.39
2016-05-06T03:28:36.784Z,20.29
2016-05-06T03:29:36.787Z,19.69
2016-05-06T03:30:36.775Z,19.51
2016-05-06T03:31:36.777Z,19.69
2016-05-06T03:32:36.623Z,19.95
2016-05-06T03:33:36.783Z,20.02
2016-05-06T03:34:36.785Z,19.55
2016-05-06T03:35:36.772Z,19.48
2016-05-06T03:36:36.775Z,19.73
2016-05-06T03:37:36.762Z,20.18
2016-05-06T03:38:36.780Z,19.95
2016-05-06T03:39:36.627Z,20.35
2016-05-06T03:40:37.302Z,20.61
2016-05-06T03:41:36.783Z,19.87
2016-05-06T03:42:36.783Z,19.8
2016-05-06T03:43:36.853Z,20.08
2016-05-06T03:44:36.760Z,19.88
2016-05-06T03:45:36.607Z,20.43
2016-05-06T03:46:36.750Z,20.35
2016-05-06T03:47:36.769Z,20.11
2016-05-06T03:48:36.802Z,19.94
2016-05-06T03:49:36.633Z,20.57
2016-05-06T03:50:36.745Z,20.5
2016-05-06T03:51:36.763Z,20.32
2016-05-06T03:52:36.751Z,20.41
2016-05-06T03:53:36.815Z,20.33
2016-05-06T03:54:36.600Z,20.32
2016-05-06T03:55:36.618Z,20.29
2016-05-06T03:56:36.777Z,19.51
2016-05-06T03:57:36.592Z,19.86
2016-05-06T03:58:36.751Z,19.47
2016-05-06T03:59:36.582Z,19.83
2016-05-06T04:00:36.757Z,20.06
2016-05-06T04:01:36.743Z,19.88
2016-05-06T04:02:36.745Z,19.84
2016-05-06T04:03:36.577Z,19.39
2016-05-06T04:04:36.595Z,19.71
2016-05-06T04:05:36.753Z,19.48
2016-05-06T04:06:36.742Z,20.05
2016-05-06T04:07:36.588Z,19.96
2016-05-06T04:08:36.747Z,19.55
2016-05-06T04:09:36.749Z,19.71
2016-05-06T04:10:36.596Z,20.03
2016-05-06T04:11:36.738Z,20.67
2016-05-06T04:12:36.742Z,20.08
2016-05-06T04:13:36.588Z,20.29
2016-05-06T04:14:36.731Z,20.51
2016-05-06T04:15:36.734Z,20.77
2016-05-06T04:16:36.736Z,20.39
2016-05-06T04:17:36.724Z,20.01
2016-05-06T04:18:36.726Z,20.26
2016-05-06T04:19:36.730Z,20.73
2016-05-06T04:20:36.732Z,20.72
2016-05-06T04:21:36.735Z,20.64
2016-05-06T04:22:36.721Z,20.42
2016-05-06T04:23:36.584Z,20.2
2016-05-06T04:24:36.727Z,20.41
2016-05-06T04:25:36.870Z,20.72
2016-05-06T04:26:36.560Z,20.52
2016-05-06T04:27:36.735Z,20.48
2016-05-06T04:28:36.566Z,20.8
2016-05-06T04:29:36.568Z,19.86
2016-05-06T04:30:36.571Z,19.99
2016-05-06T04:31:36.559Z,20.28
2016-05-06T04:32:36.718Z,20.33
2016-05-06T04:33:36.736Z,20.55
2016-05-06T04:34:36.551Z,20.62
2016-05-06T04:35:36.710Z,20.66
2016-05-06T04:36:36.712Z,20.33
2016-05-06T04:37:36.715Z,20.51
2016-05-06T04:38:36.717Z,20.36
2016-05-06T04:39:36.720Z,20.21
2016-05-06T04:40:36.395Z,19.91
2016-05-06T04:41:36.711Z,19.96
2016-05-06T04:42:36.713Z,20.41
2016-05-06T04:43:36.716Z,20.35
2016-05-06T04:44:36.703Z,20.06
2016-05-06T04:45:36.549Z,20.61
2016-05-06T04:46:36.552Z,20.55
2016-05-06T04:47:36.555Z,20.48
2016-05-06T04:48:36.714Z,19.81
2016-05-06T04:49:36.700Z,20.18
2016-05-06T04:50:36.547Z,19.65
2016-05-06T04:51:36.705Z,19.73
2016-05-06T04:52:36.708Z,20.21
2016-05-06T04:53:36.696Z,20.05
2016-05-06T04:54:36.699Z,20.11
2016-05-06T04:55:37.013Z,19.44
2016-05-06T04:56:36.688Z,20.2
2016-05-06T04:57:36.691Z,20.32
2016-05-06T04:58:36.709Z,20.54
2016-05-06T04:59:36.696Z,20.73
2016-05-06T05:00:36.698Z,20.74
2016-05-06T05:01:36.687Z,20.32
2016-05-06T05:02:36.689Z,20.74
2016-05-06T05:03:36.706Z,20.66
2016-05-06T05:04:36.695Z,20.41
2016-05-06T05:05:36.712Z,20.61
2016-05-06T05:06:36.543Z,21.01
2016-05-06T05:07:36.733Z,20.95
2016-05-06T05:08:36.706Z,20.88
2016-05-06T05:09:36.692Z,20.67
2016-05-06T05:10:36.734Z,20.69
2016-05-06T05:11:36.767Z,20.69
2016-05-06T05:12:36.817Z,20.76
2016-05-06T05:13:36.711Z,20.76
2016-05-06T05:14:36.917Z,21.27
2016-05-06T05:15:36.952Z,21.25
2016-05-06T05:16:36.831Z,21.29
2016-05-06T05:17:36.992Z,21.06
2016-05-06T05:18:36.698Z,20.84
2016-05-06T05:19:37.014Z,21.04
2016-05-06T05:20:37.045Z,21.01
2016-05-06T05:21:37.054Z,21.16
2016-05-06T05:22:37.047Z,20.61
2016-05-06T05:23:37.071Z,20.94
2016-05-06T05:24:37.065Z,21.19
2016-05-06T05:25:37.087Z,21.07
2016-05-06T05:26:37.077Z,21.28
2016-05-06T05:27:36.909Z,21.16
2016-05-06T05:28:37.087Z,21.54
2016-05-06T05:29:37.091Z,21.68
2016-05-06T05:30:37.095Z,21.47
2016-05-06T05:31:37.099Z,21.61
2016-05-06T05:32:37.102Z,21.71
2016-05-06T05:33:36.966Z,21.24
2016-05-06T05:34:36.953Z,20.97
2016-05-06T05:35:37.113Z,21.4
2016-05-06T05:36:36.959Z,21.54
2016-05-06T05:37:37.119Z,21.5
2016-05-06T05:38:37.122Z,21.61
2016-05-06T05:39:37.110Z,21.25
2016-05-06T05:40:37.675Z,21.84
2016-05-06T05:41:36.959Z,21.59
2016-05-06T05:42:36.961Z,21.86
2016-05-06T05:43:37.152Z,21.99
2016-05-06T05:44:37.124Z,21.91
2016-05-06T05:45:36.969Z,21.5
2016-05-06T05:46:37.129Z,21.59
2016-05-06T05:47:37.132Z,21.64
2016-05-06T05:48:37.135Z,21.86
2016-05-06T05:49:37.137Z,21.99
2016-05-06T05:50:36.983Z,22.02
2016-05-06T05:51:37.142Z,21.35
2016-05-06T05:52:37.004Z,21.69
2016-05-06T05:53:36.991Z,21.83
2016-05-06T05:54:36.838Z,21.65
2016-05-06T05:55:37.184Z,21.84
2016-05-06T05:56:36.999Z,21.88
2016-05-06T05:57:36.846Z,21.8
2016-05-06T05:58:37.161Z,21.21
2016-05-06T05:59:37.164Z,21.59
2016-05-06T06:00:37.167Z,21.75
2016-05-06T06:01:37.169Z,21.98
2016-05-06T06:02:37.172Z,21.35
2016-05-06T06:03:37.175Z,21.91
2016-05-06T06:04:37.005Z,21.8
2016-05-06T06:05:37.180Z,21.58
2016-05-06T06:06:37.183Z,21.98
2016-05-06T06:07:37.170Z,22.24
2016-05-06T06:08:37.172Z,21.64
2016-05-06T06:09:37.191Z,22.09
2016-05-06T06:10:37.177Z,22.42
2016-05-06T06:11:37.024Z,22.39
2016-05-06T06:12:37.027Z,22.64
2016-05-06T06:13:37.202Z,22.45
2016-05-06T06:14:37.220Z,22.55
2016-05-06T06:15:37.035Z,22.58
2016-05-06T06:16:37.209Z,22.57
2016-05-06T06:17:37.213Z,22.28
2016-05-06T06:18:37.215Z,22.42
2016-05-06T06:19:37.046Z,22.51
2016-05-06T06:20:37.221Z,22.57
2016-05-06T06:21:37.223Z,22.92
2016-05-06T06:22:37.226Z,22.85
2016-05-06T06:23:37.228Z,23.09
2016-05-06T06:24:37.232Z,23.17
2016-05-06T06:25:37.234Z,23.12
2016-05-06T06:26:37.252Z,22.97
2016-05-06T06:27:37.082Z,23.13
2016-05-06T06:28:37.273Z,23.53
2016-05-06T06:29:37.275Z,23.28
2016-05-06T06:30:37.248Z,23.31
2016-05-06T06:31:37.265Z,23.53
2016-05-06T06:32:37.111Z,23.15
2016-05-06T06:33:37.271Z,22.64
2016-05-06T06:34:37.273Z,22.77
2016-05-06T06:35:37.291Z,23.35
2016-05-06T06:36:37.279Z,23.7
2016-05-06T06:37:37.297Z,23.87
2016-05-06T06:38:37.284Z,23.13
2016-05-06T06:39:37.303Z,23.1
2016-05-06T06:40:37.305Z,23.33
2016-05-06T06:41:37.511Z,23.63
2016-05-06T06:42:37.310Z,23.46
2016-05-06T06:43:37.172Z,23.58
2016-05-06T06:44:37.332Z,23.69
2016-05-06T06:45:37.178Z,23.63
2016-05-06T06:46:37.338Z,23.5
2016-05-06T06:47:37.340Z,23.32
2016-05-06T06:48:37.046Z,23.4
2016-05-06T06:49:37.360Z,23.42
2016-05-06T06:50:37.363Z,23.23
2016-05-06T06:51:37.366Z,23.35
2016-05-06T06:52:37.369Z,23.63
2016-05-06T06:53:37.371Z,23.73
2016-05-06T06:54:37.390Z,23.88
2016-05-06T06:55:37.392Z,23.95
2016-05-06T06:56:37.426Z,24.06
2016-05-06T06:57:37.242Z,24.15
2016-05-06T06:58:37.400Z,24.02
2016-05-06T06:59:37.419Z,24.06
2016-05-06T07:00:37.421Z,24.06
2016-05-06T07:01:37.565Z,24.21
2016-05-06T07:02:37.443Z,24.22
2016-05-06T07:03:37.445Z,24.08
2016-05-06T07:04:37.291Z,23.98
2016-05-06T07:05:37.466Z,24.06
2016-05-06T07:06:37.297Z,24.21
2016-05-06T07:07:37.315Z,24.31
2016-05-06T07:08:37.474Z,24.35
2016-05-06T07:09:37.321Z,24.42
2016-05-06T07:10:37.323Z,24.39
2016-05-06T07:11:37.482Z,24.37
2016-05-06T07:12:37.500Z,24.35
2016-05-06T07:13:37.503Z,24.4
2016-05-06T07:14:37.505Z,24.4
2016-05-06T07:15:37.524Z,24.28
2016-05-06T07:16:37.527Z,24.3
2016-05-06T07:17:37.530Z,24.39
2016-05-06T07:18:37.533Z,24.49
2016-05-06T07:19:37.535Z,24.49
2016-05-06T07:20:37.554Z,24.52
2016-05-06T07:21:37.399Z,24.5
2016-05-06T07:22:37.559Z,24.35
2016-05-06T07:23:37.582Z,24.2
2016-05-06T07:24:37.584Z,24.08
2016-05-06T07:25:37.587Z,24.02
2016-05-06T07:26:37.293Z,23.8
2016-05-06T07:27:37.609Z,23.88
2016-05-06T07:28:37.611Z,23.91
2016-05-06T07:29:37.614Z,23.87
2016-05-06T07:30:37.617Z,23.83
2016-05-06T07:31:37.620Z,23.83
2016-05-06T07:32:37.638Z,23.79
2016-05-06T07:33:37.640Z,23.93
2016-05-06T07:34:37.642Z,24.06
2016-05-06T07:35:37.645Z,24.06
2016-05-06T07:36:37.664Z,24.18
2016-05-06T07:37:37.666Z,24.12
2016-05-06T07:38:37.513Z,24.15
2016-05-06T07:39:37.672Z,24.24
2016-05-06T07:40:37.675Z,24.3
2016-05-06T07:41:38.052Z,24.28
2016-05-06T07:42:37.696Z,24.37
2016-05-06T07:43:37.683Z,24.37
2016-05-06T07:44:37.701Z,24.47
2016-05-06T07:45:37.719Z,24.5
2016-05-06T07:46:37.707Z,24.55
2016-05-06T07:47:37.709Z,24.53
2016-05-06T07:48:37.556Z,24.57
2016-05-06T07:49:37.402Z,24.64
2016-05-06T07:50:37.420Z,24.65
2016-05-06T07:51:37.579Z,24.61
2016-05-06T07:52:37.738Z,24.47
2016-05-06T07:53:37.584Z,24.65
2016-05-06T07:54:37.743Z,24.64
2016-05-06T07:55:37.606Z,24.68
2016-05-06T07:56:37.765Z,24.64
2016-05-06T07:57:37.767Z,24.55
2016-05-06T07:58:37.458Z,24.5
2016-05-06T07:59:37.773Z,24.65
2016-05-06T08:00:37.775Z,24.64
2016-05-06T08:01:37.778Z,24.55
2016-05-06T08:02:37.625Z,24.67
2016-05-06T08:03:37.798Z,24.71
2016-05-06T08:04:37.786Z,24.73
2016-05-06T08:05:37.633Z,24.84
2016-05-06T08:06:37.807Z,24.68
2016-05-06T08:07:37.825Z,24.67
2016-05-06T08:08:37.812Z,24.52
2016-05-06T08:09:37.815Z,24.65
2016-05-06T08:10:37.817Z,24.53
2016-05-06T08:11:37.649Z,24.5
2016-05-06T08:12:37.807Z,24.58
2016-05-06T08:13:37.826Z,24.52
2016-05-06T08:14:37.672Z,24.47
2016-05-06T08:15:37.847Z,24.45
2016-05-06T08:16:37.833Z,24.53
2016-05-06T08:17:37.836Z,24.5
2016-05-06T08:18:37.839Z,24.58
2016-05-06T08:19:37.841Z,24.47
2016-05-06T08:20:37.844Z,24.31
2016-05-06T08:21:37.847Z,24.32
2016-05-06T08:22:37.850Z,24.31
2016-05-06T08:23:37.852Z,24.45
2016-05-06T08:24:37.715Z,24.42
2016-05-06T08:25:37.718Z,24.5
2016-05-06T08:26:38.251Z,24.35
2016-05-06T08:27:37.863Z,24.49
2016-05-06T08:28:37.866Z,24.47
2016-05-06T08:29:37.868Z,24.34
2016-05-06T08:30:37.871Z,24.4
2016-05-06T08:31:37.874Z,24.4
2016-05-06T08:32:37.877Z,24.28
2016-05-06T08:33:37.879Z,24.2
2016-05-06T08:34:37.882Z,24.22
2016-05-06T08:35:37.901Z,24.24
2016-05-06T08:36:37.903Z,24.06
2016-05-06T08:37:37.750Z,24
2016-05-06T08:38:37.908Z,24
2016-05-06T08:39:38.006Z,24.08
2016-05-06T08:40:37.914Z,24.37
2016-05-06T08:41:37.917Z,24.3
2016-05-06T08:42:37.763Z,24.22
2016-05-06T08:43:37.922Z,24.13
2016-05-06T08:44:37.925Z,24.06
2016-05-06T08:45:37.927Z,24.13
2016-05-06T08:46:37.946Z,24.24
2016-05-06T08:47:37.933Z,24.31
2016-05-06T08:48:37.935Z,24.24
2016-05-06T08:49:37.938Z,24.05
2016-05-06T08:50:37.644Z,24.12
2016-05-06T08:51:37.959Z,24.1
2016-05-06T08:52:37.963Z,24.1
2016-05-06T08:53:37.965Z,24.12
2016-05-06T08:54:37.983Z,24.05
2016-05-06T08:55:37.985Z,24.06
2016-05-06T08:56:37.988Z,24.05
2016-05-06T08:57:37.835Z,24.03
2016-05-06T08:58:37.838Z,24.15
2016-05-06T08:59:37.996Z,24.16
2016-05-06T09:00:38.015Z,24.18
2016-05-06T09:01:38.017Z,24.12
2016-05-06T09:02:37.865Z,24.25
2016-05-06T09:03:37.867Z,24.13
2016-05-06T09:04:37.870Z,24.2
2016-05-06T09:05:38.028Z,24.16
2016-05-06T09:06:38.031Z,24.16
2016-05-06T09:07:38.049Z,24.13
2016-05-06T09:08:38.052Z,24.18
2016-05-06T09:09:37.898Z,24.05
2016-05-06T09:10:37.901Z,24.02
2016-05-06T09:11:38.998Z,24.06
2016-05-06T09:12:38.063Z,23.97
2016-05-06T09:13:38.081Z,24.05
2016-05-06T09:14:38.083Z,24.02
2016-05-06T09:15:38.086Z,23.97
2016-05-06T09:16:38.089Z,23.98
2016-05-06T09:17:38.108Z,24.02
2016-05-06T09:18:38.110Z,24.06
2016-05-06T09:19:37.972Z,24.05
2016-05-06T09:20:38.115Z,24.2
2016-05-06T09:21:38.119Z,24.15
2016-05-06T09:22:38.136Z,24.09
2016-05-06T09:23:37.998Z,24.15
2016-05-06T09:24:37.986Z,24.09
2016-05-06T09:25:38.145Z,24.1
2016-05-06T09:26:38.726Z,24.03
2016-05-06T09:27:38.197Z,24.09
2016-05-06T09:28:38.184Z,24.08
2016-05-06T09:29:38.171Z,24.12
2016-05-06T09:30:38.189Z,24.05
2016-05-06T09:31:38.192Z,24.13
2016-05-06T09:32:38.195Z,24.12
2016-05-06T09:33:37.882Z,24.05
2016-05-06T09:34:38.041Z,24.06
2016-05-06T09:35:38.216Z,24
2016-05-06T09:36:38.218Z,24.03
2016-05-06T09:37:38.221Z,24
2016-05-06T09:38:38.224Z,24.15
2016-05-06T09:39:38.242Z,24.1
2016-05-06T09:40:38.229Z,24.12
2016-05-06T09:41:38.107Z,24.15
2016-05-06T09:42:38.266Z,24.12
2016-05-06T09:43:38.190Z,24.2
2016-05-06T09:44:38.615Z,24.16
2016-05-06T09:45:38.275Z,24.2
2016-05-06T09:46:38.261Z,24.21
2016-05-06T09:47:38.295Z,24.2
2016-05-06T09:48:38.283Z,24.15
2016-05-06T09:49:38.035Z,24.08
2016-05-06T09:50:38.349Z,23.97
2016-05-06T09:51:38.306Z,23.98
2016-05-06T09:52:38.308Z,24.06
2016-05-06T09:53:38.358Z,24.05
2016-05-06T09:54:38.330Z,24.08
2016-05-06T09:55:38.347Z,24.05
2016-05-06T09:56:38.179Z,24.16
2016-05-06T09:57:38.338Z,24.1
2016-05-06T09:58:38.340Z,24.12
2016-05-06T09:59:38.358Z,24.12
2016-05-06T10:00:38.360Z,24.1
2016-05-06T10:01:38.208Z,24.06
2016-05-06T10:02:38.366Z,24.1
2016-05-06T10:03:38.384Z,23.95
2016-05-06T10:04:38.247Z,23.94
2016-05-06T10:05:38.249Z,24
2016-05-06T10:06:38.392Z,23.97
2016-05-06T10:07:38.396Z,23.94
2016-05-06T10:08:38.414Z,23.94
2016-05-06T10:09:38.417Z,23.95
2016-05-06T10:10:38.451Z,23.95
2016-05-06T10:11:38.719Z,23.98
2016-05-06T10:12:38.456Z,24
2016-05-06T10:13:38.271Z,23.98
2016-05-06T10:14:38.478Z,23.95
2016-05-06T10:15:38.448Z,23.95
2016-05-06T10:16:38.311Z,23.94
2016-05-06T10:17:38.297Z,23.93
2016-05-06T10:18:38.472Z,23.9
2016-05-06T10:19:38.319Z,23.94
2016-05-06T10:20:38.493Z,23.93
2016-05-06T10:21:38.497Z,23.94
2016-05-06T10:22:38.514Z,23.91
2016-05-06T10:23:38.502Z,23.95
2016-05-06T10:24:38.504Z,23.93
2016-05-06T10:25:38.521Z,23.91
2016-05-06T10:26:38.525Z,23.94
2016-05-06T10:27:38.527Z,23.9
2016-05-06T10:28:38.530Z,23.87
2016-05-06T10:29:38.549Z,23.94
2016-05-06T10:30:38.566Z,23.8
2016-05-06T10:31:38.398Z,23.94
2016-05-06T10:32:38.557Z,23.87
2016-05-06T10:33:38.560Z,23.83
2016-05-06T10:34:38.437Z,23.93
2016-05-06T10:35:38.424Z,24
2016-05-06T10:36:38.426Z,23.98
2016-05-06T10:37:38.617Z,23.98
2016-05-06T10:38:38.588Z,24.02
2016-05-06T10:39:38.606Z,23.97
2016-05-06T10:40:38.625Z,23.93
2016-05-06T10:41:39.175Z,23.93
2016-05-06T10:42:38.615Z,23.88
2016-05-06T10:43:38.633Z,23.88
2016-05-06T10:44:38.636Z,23.91
2016-05-06T10:45:38.654Z,23.98
2016-05-06T10:46:38.641Z,23.95
2016-05-06T10:47:38.659Z,23.93
2016-05-06T10:48:38.662Z,23.88
2016-05-06T10:49:38.664Z,23.97
2016-05-06T10:50:38.684Z,23.93
2016-05-06T10:51:38.686Z,23.94
2016-05-06T10:52:38.688Z,23.9
2016-05-06T10:53:38.722Z,23.87
2016-05-06T10:54:38.569Z,23.87
2016-05-06T10:55:38.713Z,23.85
2016-05-06T10:56:38.559Z,23.98
2016-05-06T10:57:38.561Z,24
2016-05-06T10:58:38.721Z,23.9
2016-05-06T10:59:38.582Z,23.84
2016-05-06T11:00:38.742Z,23.85
2016-05-06T11:01:38.993Z,23.8
2016-05-06T11:02:38.747Z,23.83
2016-05-06T11:03:38.765Z,23.8
2016-05-06T11:04:38.643Z,23.87
2016-05-06T11:05:38.770Z,23.85
2016-05-06T11:06:38.617Z,23.87
2016-05-06T11:07:38.791Z,23.84
2016-05-06T11:08:38.810Z,23.93
2016-05-06T11:09:38.796Z,23.88
2016-05-06T11:10:38.487Z,23.85
2016-05-06T11:11:39.599Z,23.78
2016-05-06T11:12:38.821Z,23.88
2016-05-06T11:13:38.807Z,23.95
2016-05-06T11:14:38.826Z,23.93
2016-05-06T11:15:38.688Z,23.91
2016-05-06T11:16:38.831Z,23.9
2016-05-06T11:17:38.693Z,23.83
2016-05-06T11:18:38.696Z,23.87
2016-05-06T11:19:38.698Z,23.85
2016-05-06T11:20:38.858Z,23.85
2016-05-06T11:21:38.876Z,23.83
2016-05-06T11:22:38.739Z,23.84
2016-05-06T11:23:38.897Z,23.87
2016-05-06T11:24:38.743Z,23.88
2016-05-06T11:25:38.887Z,23.8
2016-05-06T11:26:39.733Z,23.88
2016-05-06T11:27:38.908Z,23.84
2016-05-06T11:28:38.927Z,23.79
2016-05-06T11:29:38.772Z,23.68
2016-05-06T11:30:38.775Z,23.73
2016-05-06T11:31:38.935Z,23.68
2016-05-06T11:32:38.952Z,23.8
2016-05-06T11:33:38.955Z,23.76
2016-05-06T11:34:38.958Z,23.7
2016-05-06T11:35:38.804Z,23.85
2016-05-06T11:36:38.980Z,23.88
2016-05-06T11:37:38.966Z,23.93
2016-05-06T11:38:38.828Z,23.91
2016-05-06T11:39:38.988Z,23.79
2016-05-06T11:40:38.990Z,23.84
2016-05-06T11:41:38.852Z,23.85
2016-05-06T11:42:39.010Z,23.79
2016-05-06T11:43:39.029Z,23.79
2016-05-06T11:44:39.032Z,23.83
2016-05-06T11:45:38.878Z,23.85
2016-05-06T11:46:39.037Z,23.76
2016-05-06T11:47:39.040Z,23.76
2016-05-06T11:48:39.042Z,23.8
2016-05-06T11:49:39.061Z,23.78
2016-05-06T11:50:39.064Z,23.72
2016-05-06T11:51:39.082Z,23.69
2016-05-06T11:52:39.100Z,23.76
2016-05-06T11:53:39.087Z,23.63
2016-05-06T11:54:39.090Z,23.68
2016-05-06T11:55:39.092Z,23.73
2016-05-06T11:56:39.095Z,23.7
2016-05-06T11:57:39.113Z,23.69
2016-05-06T11:58:38.804Z,23.68
2016-05-06T11:59:39.119Z,23.73
2016-05-06T12:00:38.980Z,23.73
2016-05-06T12:01:39.141Z,23.76
2016-05-06T12:02:39.143Z,23.83
2016-05-06T12:03:39.146Z,23.8
2016-05-06T12:04:39.148Z,23.84
2016-05-06T12:05:39.167Z,23.85
2016-05-06T12:06:39.169Z,23.85
2016-05-06T12:07:39.171Z,23.75
2016-05-06T12:08:39.175Z,23.76
2016-05-06T12:09:39.177Z,23.78
2016-05-06T12:10:39.196Z,23.65
2016-05-06T12:11:39.292Z,23.68
2016-05-06T12:12:39.045Z,23.79
2016-05-06T12:13:39.219Z,23.72
2016-05-06T12:14:39.206Z,23.79
2016-05-06T12:15:39.224Z,23.75
2016-05-06T12:16:39.226Z,23.8
2016-05-06T12:17:39.230Z,23.83
2016-05-06T12:18:39.248Z,23.69
2016-05-06T12:19:39.251Z,23.7
2016-05-06T12:20:39.254Z,23.73
2016-05-06T12:21:39.100Z,23.68
2016-05-06T12:22:39.259Z,23.69
2016-05-06T12:23:39.262Z,23.72
2016-05-06T12:24:39.280Z,23.73
2016-05-06T12:25:39.283Z,23.61
2016-05-06T12:26:39.801Z,23.68
2016-05-06T12:27:39.289Z,23.66
2016-05-06T12:28:39.306Z,23.6
2016-05-06T12:29:45.074Z,23.65
2016-05-06T12:30:39.312Z,23.63
2016-05-06T12:31:39.158Z,23.76
2016-05-06T12:32:39.349Z,23.63
2016-05-06T12:33:39.352Z,23.61
2016-05-06T12:34:39.354Z,23.69
2016-05-06T12:35:39.200Z,23.58
2016-05-06T12:36:39.359Z,23.73
2016-05-06T12:37:39.363Z,23.65
2016-05-06T12:38:39.224Z,23.66
2016-05-06T12:39:39.367Z,23.75
2016-05-06T12:40:39.386Z,23.75
2016-05-06T12:41:39.529Z,23.7
2016-05-06T12:42:39.390Z,23.69
2016-05-06T12:43:39.394Z,23.55
2016-05-06T12:44:39.427Z,23.69
2016-05-06T12:45:39.415Z,23.54
2016-05-06T12:46:39.417Z,23.61
2016-05-06T12:47:39.264Z,23.66
2016-05-06T12:48:39.438Z,23.65
2016-05-06T12:49:39.441Z,23.68
2016-05-06T12:50:39.288Z,23.75
2016-05-06T12:51:39.306Z,23.75
2016-05-06T12:52:39.449Z,23.78
2016-05-06T12:53:39.483Z,23.66
2016-05-06T12:54:39.314Z,23.63
2016-05-06T12:55:39.489Z,23.61